Time;durP1;ratioP1;P1;durP2;ratioP2;P2;SDS_P1;SDS_P2;PMS_P1;PMS_P2;Temp;Humidity;BMP_temperature;BMP_pressure;BME280_temperature;BME280_humidity;BME280_pressure;Samples;Min_cycle;Max_cycle;Signal;HPM_P1;HPM_P2
2023/11/26 00:00:13;;;;;;;6.20;1.52;;;;;;;19.64;53.11;101602.94;5081948;28;20323;-36
2023/11/26 00:02:39;;;;;;;3.15;1.70;;;;;;;19.63;53.12;101628.78;5096889;28;20055;-37
2023/11/26 00:05:05;;;;;;;5.93;1.80;;;;;;;19.63;53.04;101645.28;5086521;28;20528;-37
2023/11/26 00:07:30;;;;;;;3.80;1.80;;;;;;;19.63;53.36;101644.44;5077114;28;20082;-36
2023/11/26 00:09:55;;;;;;;3.47;1.50;;;;;;;19.62;53.35;101627.13;5086220;28;20031;-36
2023/11/26 00:12:21;;;;;;;3.92;2.10;;;;;;;19.62;53.50;101618.03;5086874;28;20109;-36
2023/11/26 00:14:47;;;;;;;4.22;1.77;;;;;;;19.61;53.41;101619.97;5084578;28;20043;-36
2023/11/26 00:17:12;;;;;;;4.35;1.85;;;;;;;19.61;53.32;101616.38;5087870;28;20490;-36
2023/11/26 00:19:38;;;;;;;7.40;1.92;;;;;;;19.59;53.48;101616.66;5082849;28;20024;-37
2023/11/26 00:22:04;;;;;;;6.18;2.00;;;;;;;19.59;53.31;101607.59;5112454;27;20158;-37
2023/11/26 00:24:29;;;;;;;4.55;1.80;;;;;;;19.58;53.49;101600.44;5117636;27;20023;-37
2023/11/26 00:26:55;;;;;;;3.30;1.80;;;;;;;19.54;53.60;101592.72;5085503;28;20058;-37
2023/11/26 00:29:20;;;;;;;3.58;1.65;;;;;;;19.55;53.42;101596.31;5086328;28;20043;-37
2023/11/26 00:31:45;;;;;;;3.88;1.90;;;;;;;19.54;53.56;101602.91;5086663;28;20495;-37
2023/11/26 00:34:11;;;;;;;3.75;2.00;;;;;;;19.52;53.64;101599.59;5083544;28;20020;-36
2023/11/26 00:36:36;;;;;;;4.15;1.75;;;;;;;19.51;53.75;101593.28;5082269;28;20024;-36
2023/11/26 00:39:02;;;;;;;5.68;2.22;;;;;;;19.51;53.75;101593.28;5087232;28;20056;-36
2023/11/26 00:41:28;;;;;;;4.20;1.98;;;;;;;19.50;53.95;101586.13;5093136;28;20027;-37
2023/11/26 00:43:53;;;;;;;4.43;1.70;;;;;;;19.50;53.83;101582.56;5082659;28;20146;-37
2023/11/26 00:46:18;;;;;;;3.88;2.00;;;;;;;19.48;53.88;101598.47;5084016;28;20526;-36
2023/11/26 00:48:44;;;;;;;3.28;1.70;;;;;;;19.47;53.99;101597.66;5114863;27;20028;-36
2023/11/26 00:51:20;;;;;;;3.50;1.70;;;;;;;19.45;53.78;101583.34;5092603;28;20032;-37
2023/11/26 00:53:45;;;;;;;2.33;1.40;;;;;;;19.44;53.94;101595.44;5082774;28;20062;-37
2023/11/26 00:56:11;;;;;;;3.72;1.50;;;;;;;19.44;53.87;101600.13;5083769;28;20062;-37
2023/11/26 00:58:36;;;;;;;2.53;1.52;;;;;;;19.42;54.08;101605.88;5080701;28;20396;-37
2023/11/26 01:01:02;;;;;;;3.13;1.60;;;;;;;19.42;54.26;101607.81;5084171;28;20028;-36
2023/11/26 01:03:27;;;;;;;4.88;1.73;;;;;;;19.39;54.39;101612.72;5073019;28;20020;-36
2023/11/26 01:05:52;;;;;;;3.13;1.50;;;;;;;19.38;54.17;101616.56;5098055;28;20055;-36
2023/11/26 01:08:18;;;;;;;3.05;1.45;;;;;;;19.37;54.45;101616.84;5085330;28;20011;-36
2023/11/26 01:10:43;;;;;;;4.53;1.58;;;;;;;19.36;54.42;101624.28;5093976;28;20866;-36
2023/11/26 01:13:09;;;;;;;4.18;1.55;;;;;;;19.35;54.25;101616.28;5073202;28;20028;-36
2023/11/26 01:15:34;;;;;;;4.30;1.77;;;;;;;19.33;54.24;101619.28;5094539;28;20032;-36
2023/11/26 01:18:00;;;;;;;7.60;1.75;;;;;;;19.33;54.46;101611.06;5096969;28;20031;-36
2023/11/26 01:20:25;;;;;;;2.45;1.55;;;;;;;19.32;54.63;101612.16;5072493;28;20020;-36
2023/11/26 01:22:51;;;;;;;2.95;1.55;;;;;;;19.31;54.39;101620.66;5082261;28;20028;-36
2023/11/26 01:25:16;;;;;;;3.03;1.55;;;;;;;19.30;54.44;101619.00;5084402;28;20492;-36
2023/11/26 01:27:42;;;;;;;4.65;1.75;;;;;;;19.29;54.37;101620.94;5082744;28;20058;-36
2023/11/26 01:30:08;;;;;;;3.67;1.40;;;;;;;19.28;54.41;101618.47;5091417;28;20032;-36
2023/11/26 01:32:35;;;;;;;6.07;1.73;;;;;;;19.26;54.39;101618.72;5085095;28;20069;-36
2023/11/26 01:35:02;;;;;;;4.70;1.52;;;;;;;19.26;54.87;101626.13;5083313;28;20104;-36
2023/11/26 01:37:27;;;;;;;5.00;1.70;;;;;;;19.25;54.72;101628.03;5084275;28;20135;-36
2023/11/26 01:39:53;;;;;;;2.55;1.60;;;;;;;19.23;54.55;101628.31;5083099;28;20115;-36
2023/11/26 01:42:18;;;;;;;5.65;1.75;;;;;;;19.23;54.91;101625.56;5083077;28;20035;-36
2023/11/26 01:44:43;;;;;;;3.78;1.42;;;;;;;19.21;54.84;101605.78;5075342;28;20043;-37
2023/11/26 01:47:09;;;;;;;3.63;1.90;;;;;;;19.20;54.67;101606.88;5088022;28;20019;-37
2023/11/26 01:49:36;;;;;;;2.97;1.30;;;;;;;19.20;54.94;101617.03;5088395;28;20062;-36
2023/11/26 01:52:05;;;;;;;2.55;1.40;;;;;;;19.18;54.96;101611.81;5081964;28;20173;-37
2023/11/26 01:54:34;;;;;;;3.28;1.50;;;;;;;19.19;54.99;101607.97;5081545;28;20032;-36
2023/11/26 01:57:00;;;;;;;3.60;1.65;;;;;;;19.18;55.03;101608.25;5083215;28;20100;-37
2023/11/26 01:59:26;;;;;;;3.10;1.38;;;;;;;19.18;55.08;101609.06;5082521;28;20096;-37
2023/11/26 02:01:52;;;;;;;4.35;1.52;;;;;;;19.15;55.08;101606.81;5079716;28;20081;-37
2023/11/26 02:04:17;;;;;;;2.55;1.58;;;;;;;19.14;55.01;101607.94;5079942;28;20016;-36
2023/11/26 02:06:43;;;;;;;3.17;1.50;;;;;;;19.12;55.21;101606.56;5077439;28;20027;-36
2023/11/26 02:09:10;;;;;;;4.57;1.50;;;;;;;19.13;55.23;101608.19;5097607;28;20065;-36
2023/11/26 02:11:36;;;;;;;3.38;1.58;;;;;;;19.11;55.03;101613.97;5083544;28;20017;-36
2023/11/26 02:14:01;;;;;;;3.53;1.58;;;;;;;19.10;55.30;101615.03;5077218;28;20112;-37
2023/11/26 02:16:26;;;;;;;3.50;1.67;;;;;;;19.11;55.26;101615.88;5074636;28;20025;-37
2023/11/26 02:18:52;;;;;;;2.70;1.60;;;;;;;19.10;55.43;101611.47;5081172;28;20594;-37
2023/11/26 02:21:17;;;;;;;3.17;1.60;;;;;;;19.08;55.25;101606.25;5081135;28;20396;-38
2023/11/26 02:23:45;;;;;;;3.60;1.33;;;;;;;19.06;55.32;101612.00;5085138;28;20028;-36
2023/11/26 02:26:10;;;;;;;2.03;1.27;;;;;;;19.06;55.09;101611.19;5084711;28;20500;-37
2023/11/26 02:28:37;;;;;;;4.18;1.30;;;;;;;19.05;55.24;101613.09;5079038;28;20031;-36
2023/11/26 02:31:02;;;;;;;3.72;1.40;;;;;;;19.04;55.24;101616.97;5069568;28;20031;-36
2023/11/26 02:33:28;;;;;;;3.38;1.60;;;;;;;19.04;55.35;101613.34;5086034;28;20020;-36
2023/11/26 02:35:53;;;;;;;2.85;1.55;;;;;;;19.02;55.27;101601.84;5086238;28;20023;-36
2023/11/26 02:38:19;;;;;;;1.83;1.30;;;;;;;19.00;55.26;101613.06;5078846;28;20031;-37
2023/11/26 02:40:48;;;;;;;3.33;1.33;;;;;;;18.99;55.19;101605.91;5084828;28;20032;-36
2023/11/26 02:43:13;;;;;;;2.97;1.52;;;;;;;18.99;55.14;101613.34;5081548;28;20079;-37
2023/11/26 02:45:40;;;;;;;2.10;1.20;;;;;;;18.99;55.46;101610.59;5085822;28;20111;-36
2023/11/26 02:48:05;;;;;;;2.92;1.05;;;;;;;18.98;55.25;101603.44;5086891;28;20015;-36
2023/11/26 02:50:31;;;;;;;4.65;1.60;;;;;;;18.97;55.48;101602.63;5086744;28;20456;-36
2023/11/26 02:52:56;;;;;;;4.10;1.55;;;;;;;18.96;55.34;101600.97;5084509;28;20527;-36
2023/11/26 02:55:21;;;;;;;4.03;1.52;;;;;;;18.96;55.50;101602.88;5083669;28;20023;-36
2023/11/26 02:57:47;;;;;;;4.10;1.50;;;;;;;18.94;55.50;101589.41;5080818;28;20040;-36
2023/11/26 03:00:15;;;;;;;2.40;1.42;;;;;;;18.94;55.33;101602.31;5084096;28;20051;-36
2023/11/26 03:02:42;;;;;;;2.65;1.65;;;;;;;18.94;55.60;101596.81;5080110;28;20075;-36
2023/11/26 03:05:17;;;;;;;5.43;1.50;;;;;;;18.92;55.77;101599.84;5089403;28;20023;-36
2023/11/26 03:07:42;;;;;;;;;;;;;;;18.90;55.67;101597.31;5093210;27;20525;-36
2023/11/26 03:13:11;;;;;;;2.83;1.35;;;;;;;18.89;55.78;101597.59;5080866;28;20047;-36
2023/11/26 03:15:38;;;;;;;2.97;1.50;;;;;;;18.88;55.69;101598.66;5082090;28;20405;-36
2023/11/26 03:18:08;;;;;;;3.03;1.30;;;;;;;18.88;55.59;101604.16;5087122;28;20582;-36
2023/11/26 03:20:36;;;;;;;2.92;1.40;;;;;;;18.87;55.75;101599.75;5082812;28;20092;-36
2023/11/26 03:23:04;;;;;;;3.92;1.58;;;;;;;18.87;55.93;101602.50;5076236;28;20141;-36
2023/11/26 03:25:30;;;;;;;3.50;1.27;;;;;;;18.86;55.73;101598.09;5080071;28;20024;-36
2023/11/26 03:27:58;;;;;;;2.75;1.17;;;;;;;18.87;55.97;101599.75;5085343;28;20032;-36
2023/11/26 03:30:24;;;;;;;4.60;1.35;;;;;;;18.87;55.74;101603.34;5085760;28;20411;-36
2023/11/26 03:32:50;;;;;;;2.42;1.30;;;;;;;18.87;55.72;101606.09;5085307;28;20024;-36
2023/11/26 03:35:16;;;;;;;3.63;1.40;;;;;;;18.87;55.84;101599.75;5073781;28;20141;-37
2023/11/26 03:37:41;;;;;;;3.65;1.20;;;;;;;18.87;55.90;101597.00;5086228;28;20028;-36
2023/11/26 03:40:07;;;;;;;3.80;1.52;;;;;;;18.88;55.77;101593.19;5086773;28;20020;-36
2023/11/26 03:42:36;;;;;;;3.85;1.73;;;;;;;18.87;55.96;101591.53;5085709;28;20110;-37
2023/11/26 03:45:03;;;;;;;2.85;1.55;;;;;;;18.87;56.00;101599.75;5098791;28;20065;-36
2023/11/26 03:47:28;;;;;;;2.35;1.15;;;;;;;18.87;55.86;101602.50;5080459;28;20107;-37
2023/11/26 03:49:53;;;;;;;2.25;1.33;;;;;;;18.85;55.91;101597.28;5079327;28;20110;-36
2023/11/26 03:52:19;;;;;;;2.17;1.45;;;;;;;18.84;55.92;101600.31;5076623;28;20056;-37
2023/11/26 03:54:44;;;;;;;2.45;1.20;;;;;;;18.83;55.78;101598.63;5080647;28;20028;-36
2023/11/26 03:57:11;;;;;;;2.88;1.30;;;;;;;18.82;55.89;101596.97;5083257;28;20074;-37
2023/11/26 03:59:36;;;;;;;2.45;1.30;;;;;;;18.82;56.03;101592.34;5086406;28;20028;-37
2023/11/26 04:02:02;;;;;;;3.60;1.15;;;;;;;18.81;56.13;101587.94;5085811;28;20030;-36
2023/11/26 04:04:28;;;;;;;3.60;1.10;;;;;;;18.82;56.03;101605.22;5085666;28;20047;-36
2023/11/26 04:06:54;;;;;;;2.08;1.20;;;;;;;18.83;56.02;101604.13;5081493;28;20099;-36
2023/11/26 04:09:19;;;;;;;2.33;1.40;;;;;;;18.81;56.14;101606.31;5085146;28;20464;-36
2023/11/26 04:11:44;;;;;;;2.15;1.27;;;;;;;18.81;56.15;101606.31;5118116;27;20024;-36
2023/11/26 04:14:10;;;;;;;2.08;1.10;;;;;;;18.80;56.06;101607.41;5086867;28;20449;-36
2023/11/26 04:16:36;;;;;;;2.15;1.30;;;;;;;18.80;56.07;101610.13;5083541;28;20533;-37
2023/11/26 04:19:01;;;;;;;4.10;1.52;;;;;;;18.77;56.20;101619.75;5077324;28;20059;-36
2023/11/26 04:21:27;;;;;;;4.55;1.52;;;;;;;18.77;56.00;101608.75;5082481;28;20028;-36
2023/11/26 04:23:52;;;;;;;2.80;1.33;;;;;;;18.77;55.96;101601.34;5079697;28;20055;-36
2023/11/26 04:26:18;;;;;;;2.05;1.23;;;;;;;18.75;55.99;101595.28;5085334;28;20023;-36
2023/11/26 04:28:43;;;;;;;2.33;1.30;;;;;;;18.76;56.14;101604.34;5085311;28;20093;-36
2023/11/26 04:31:08;;;;;;;2.42;1.20;;;;;;;18.75;56.14;101611.78;5084810;28;20384;-36
2023/11/26 04:33:34;;;;;;;1.65;1.02;;;;;;;18.74;56.07;101610.09;5085175;28;20561;-36
2023/11/26 04:35:59;;;;;;;2.70;1.42;;;;;;;18.73;56.21;101613.94;5084982;28;20442;-36
2023/11/26 04:38:26;;;;;;;2.38;1.27;;;;;;;18.73;56.24;101613.94;5081817;28;20128;-36
2023/11/26 04:40:51;;;;;;;2.60;1.30;;;;;;;18.71;56.19;101605.16;5083830;28;20050;-36
2023/11/26 04:43:17;;;;;;;3.30;1.70;;;;;;;18.72;56.20;101611.47;5114282;27;20028;-36
2023/11/26 04:45:42;;;;;;;4.22;1.45;;;;;;;18.71;56.29;101609.81;5083610;28;20519;-36
2023/11/26 04:48:08;;;;;;;6.15;1.60;;;;;;;18.70;56.34;101608.16;5094811;28;20456;-36
2023/11/26 04:50:34;;;;;;;2.58;1.30;;;;;;;18.67;56.11;101601.25;5077546;28;20039;-36
2023/11/26 04:52:59;;;;;;;4.32;1.73;;;;;;;18.67;56.21;101604.00;5074854;28;20031;-36
2023/11/26 04:55:25;;;;;;;3.35;1.23;;;;;;;18.67;56.20;101606.75;5086299;28;20223;-36
2023/11/26 04:57:50;;;;;;;1.40;1.10;;;;;;;18.66;56.35;101594.13;5084297;28;20043;-36
2023/11/26 05:00:16;;;;;;;1.67;0.90;;;;;;;18.65;56.23;101594.38;5083547;28;20023;-37
2023/11/26 05:02:42;;;;;;;3.25;1.30;;;;;;;18.64;56.16;101596.31;5083022;28;20514;-36
2023/11/26 05:05:09;;;;;;;4.95;1.58;;;;;;;18.64;56.40;101596.31;5079424;28;20024;-36
2023/11/26 05:07:39;;;;;;;2.85;1.15;;;;;;;18.64;56.36;101596.31;5077100;28;20569;-36
2023/11/26 05:10:07;;;;;;;3.17;1.60;;;;;;;18.63;56.32;101602.09;5106237;27;20361;-36
2023/11/26 05:12:34;;;;;;;2.78;1.05;;;;;;;18.62;56.30;101598.50;5080153;28;20082;-36
2023/11/26 05:15:00;;;;;;;3.75;1.20;;;;;;;18.62;56.38;101614.97;5083704;28;20073;-36
2023/11/26 05:17:25;;;;;;;3.05;1.48;;;;;;;18.61;56.32;101602.31;5078030;28;20035;-37
2023/11/26 05:19:51;;;;;;;2.03;1.15;;;;;;;18.60;56.58;101606.16;5086113;28;20035;-36
2023/11/26 05:22:16;;;;;;;2.22;1.25;;;;;;;18.62;56.51;101612.22;5083453;28;20522;-36
2023/11/26 05:24:41;;;;;;;2.22;1.17;;;;;;;18.60;56.32;101622.63;5089664;28;20405;-36
2023/11/26 05:27:07;;;;;;;2.42;1.30;;;;;;;18.59;56.49;101632.78;5088558;28;20294;-36
2023/11/26 05:29:32;;;;;;;2.75;1.30;;;;;;;18.59;56.38;101618.25;5085201;28;20032;-36
2023/11/26 05:31:58;;;;;;;2.38;1.25;;;;;;;18.58;56.65;101620.16;5074015;28;20024;-36
2023/11/26 05:34:23;;;;;;;1.73;1.30;;;;;;;18.58;56.48;101608.34;5073556;28;20020;-36
2023/11/26 05:36:49;;;;;;;3.38;1.35;;;;;;;18.58;56.77;101602.84;5081761;28;20020;-36
2023/11/26 05:39:15;;;;;;;2.15;1.30;;;;;;;18.62;56.73;101603.97;5084500;28;20614;-36
2023/11/26 05:41:41;;;;;;;3.47;1.20;;;;;;;18.68;56.55;101602.13;5084567;28;20103;-36
2023/11/26 05:44:06;;;;;;;2.05;1.20;;;;;;;18.75;56.75;101594.47;5081900;28;20031;-36
2023/11/26 05:46:32;;;;;;;2.15;1.10;;;;;;;18.81;56.59;101593.41;5077752;28;20440;-36
2023/11/26 05:48:57;;;;;;;1.35;1.00;;;;;;;18.90;56.25;101594.56;5078794;28;20037;-36
2023/11/26 05:51:23;;;;;;;3.58;1.40;;;;;;;18.98;56.13;101593.28;5079382;28;20324;-36
2023/11/26 05:53:48;;;;;;;2.20;1.27;;;;;;;19.07;56.03;101590.88;5077659;28;20124;-36
2023/11/26 05:56:13;;;;;;;3.47;1.35;;;;;;;19.16;56.12;101593.94;5073737;28;20052;-36
2023/11/26 05:58:39;;;;;;;6.50;1.60;;;;;;;19.24;56.05;101594.25;5088690;28;20358;-37
2023/11/26 06:01:04;;;;;;;2.58;1.30;;;;;;;19.34;56.04;101595.41;5086817;28;20031;-37
2023/11/26 06:03:30;;;;;;;2.35;1.55;;;;;;;19.40;55.64;101595.16;5084597;28;20426;-37
2023/11/26 06:05:55;;;;;;;4.15;1.35;;;;;;;19.49;55.83;101589.16;5088140;28;20027;-36
2023/11/26 06:08:21;;;;;;;2.92;1.48;;;;;;;19.59;55.64;101588.34;5083188;28;20066;-37
2023/11/26 06:10:46;;;;;;;2.67;1.30;;;;;;;19.67;55.79;101593.34;5086332;28;20031;-37
2023/11/26 06:13:12;;;;;;;2.28;1.20;;;;;;;19.76;55.68;101588.94;5082460;28;20044;-37
2023/11/26 06:15:38;;;;;;;3.58;1.20;;;;;;;19.84;55.20;101593.13;5084402;28;20539;-37
2023/11/26 06:18:04;;;;;;;1.80;1.33;;;;;;;19.91;55.17;101596.44;5083082;28;20066;-37
2023/11/26 06:20:29;;;;;;;2.38;1.13;;;;;;;19.99;55.15;101592.34;5079745;28;20042;-37
2023/11/26 06:22:54;;;;;;;3.42;1.40;;;;;;;20.08;55.33;101592.63;5076875;28;20038;-37
2023/11/26 06:25:20;;;;;;;2.22;1.17;;;;;;;20.14;55.29;101595.09;5088009;28;20106;-37
2023/11/26 06:27:45;;;;;;;3.70;1.33;;;;;;;20.22;55.01;101602.03;5087989;28;20035;-37
2023/11/26 06:30:11;;;;;;;3.13;1.30;;;;;;;20.28;54.96;101598.16;5087398;28;20503;-37
2023/11/26 06:32:37;;;;;;;3.28;1.50;;;;;;;20.36;54.78;101611.38;5086179;28;20544;-37
2023/11/26 06:35:02;;;;;;;2.05;1.20;;;;;;;20.41;55.18;101602.28;5079029;28;20019;-37
2023/11/26 06:37:28;;;;;;;3.10;1.15;;;;;;;20.47;54.67;101601.19;5087294;28;20132;-37
2023/11/26 06:39:53;;;;;;;2.88;1.27;;;;;;;20.53;54.65;101613.03;5087192;28;20051;-37
2023/11/26 06:42:19;;;;;;;5.13;1.45;;;;;;;20.58;54.69;101617.72;5075152;28;20397;-37
2023/11/26 06:44:45;;;;;;;5.97;1.33;;;;;;;20.61;54.81;101615.25;5084504;28;20032;-37
2023/11/26 06:47:10;;;;;;;3.80;1.30;;;;;;;20.64;54.70;101603.66;5081759;28;20073;-37
2023/11/26 06:49:36;;;;;;;3.67;1.60;;;;;;;20.68;54.30;101603.94;5077976;28;20115;-37
2023/11/26 06:52:01;;;;;;;4.72;1.40;;;;;;;20.72;54.51;101601.50;5112632;27;20039;-37
2023/11/26 06:54:27;;;;;;;4.82;1.30;;;;;;;20.73;54.91;101600.38;5099118;27;21428;-37
2023/11/26 06:56:52;;;;;;;3.10;1.35;;;;;;;20.71;54.85;101606.16;5086685;28;20466;-37
2023/11/26 06:59:17;;;;;;;3.70;1.40;;;;;;;20.67;54.50;101600.38;5086847;28;20031;-37
2023/11/26 07:01:43;;;;;;;3.13;1.30;;;;;;;20.64;54.88;101603.66;5088647;28;20514;-37
2023/11/26 07:04:10;;;;;;;3.47;1.50;;;;;;;20.59;54.69;101603.66;5081710;28;20077;-37
2023/11/26 07:06:35;;;;;;;2.83;1.25;;;;;;;20.56;54.76;101604.22;5086683;28;20103;-37
2023/11/26 07:09:01;;;;;;;2.55;1.20;;;;;;;20.51;55.38;101598.72;5085758;28;20139;-37
2023/11/26 07:11:28;;;;;;;2.38;1.02;;;;;;;20.48;55.32;101597.34;5085702;28;20031;-37
2023/11/26 07:13:54;;;;;;;4.63;1.42;;;;;;;20.44;55.17;101601.75;5084897;28;20031;-37
2023/11/26 07:16:21;;;;;;;4.72;1.45;;;;;;;20.43;55.22;101602.84;5084915;28;20036;-37
2023/11/26 07:18:47;;;;;;;4.38;1.42;;;;;;;20.43;55.26;101600.09;5082651;28;20032;-37
2023/11/26 07:21:12;;;;;;;4.15;1.40;;;;;;;20.44;55.58;101590.75;5100370;27;20032;-37
2023/11/26 07:23:39;;;;;;;2.10;1.17;;;;;;;20.46;55.65;101599.53;5078431;28;20095;-37
2023/11/26 07:26:12;;;;;;;2.80;1.30;;;;;;;20.48;55.37;101599.28;5084195;28;20030;-37
2023/11/26 07:28:38;;;;;;;2.33;1.23;;;;;;;20.50;55.64;101599.81;5086885;28;20094;-37
2023/11/26 07:31:03;;;;;;;4.72;1.27;;;;;;;20.54;55.28;101598.16;5086924;28;20146;-37
2023/11/26 07:33:29;;;;;;;2.97;1.10;;;;;;;20.55;55.44;101597.06;5083062;28;20028;-37
2023/11/26 07:35:54;;;;;;;1.95;1.30;;;;;;;20.54;55.68;101595.41;5078554;28;20027;-37
2023/11/26 07:38:19;;;;;;;2.47;1.20;;;;;;;20.52;55.38;101600.38;5085033;28;20087;-35
2023/11/26 07:40:45;;;;;;;2.90;1.50;;;;;;;20.49;55.90;101587.97;5086620;28;20059;-36
2023/11/26 07:43:11;;;;;;;1.80;1.20;;;;;;;20.50;55.47;101602.56;5081772;28;20069;-36
2023/11/26 07:45:37;;;;;;;3.88;1.60;;;;;;;20.49;55.70;101598.16;5083746;28;20034;-36
2023/11/26 07:48:04;;;;;;;3.03;1.30;;;;;;;20.48;55.90;101600.09;5085877;28;20016;-36
2023/11/26 07:50:29;;;;;;;1.88;1.20;;;;;;;20.47;55.71;101603.13;5085686;28;20023;-36
2023/11/26 07:52:55;;;;;;;2.80;1.20;;;;;;;20.45;55.80;101600.66;5078750;28;20046;-36
2023/11/26 07:55:20;;;;;;;1.77;1.30;;;;;;;20.43;55.66;101593.75;5083152;28;20020;-36
2023/11/26 07:57:46;;;;;;;2.40;1.23;;;;;;;20.43;55.94;101602.84;5085070;28;20036;-36
2023/11/26 08:00:14;;;;;;;3.17;1.20;;;;;;;20.41;55.65;101602.28;5119715;27;20020;-36
2023/11/26 08:02:40;;;;;;;3.22;1.15;;;;;;;20.40;55.63;101608.06;5084234;28;20069;-36
2023/11/26 08:05:08;;;;;;;2.80;1.13;;;;;;;20.40;55.79;101599.81;5078326;28;20019;-36
2023/11/26 08:07:35;;;;;;;2.80;1.10;;;;;;;20.39;56.00;101600.91;5080923;28;20357;-36
2023/11/26 08:10:09;;;;;;;3.00;1.10;;;;;;;20.37;55.92;101609.47;5077630;28;20016;-36
2023/11/26 08:12:36;;;;;;;3.83;1.50;;;;;;;20.32;55.88;101607.53;5082785;28;20036;-36
2023/11/26 08:15:05;;;;;;;2.40;1.10;;;;;;;20.30;56.00;101617.97;5082794;28;20030;-36
2023/11/26 08:17:32;;;;;;;2.58;1.00;;;;;;;20.26;56.03;101619.63;5094231;28;20649;-36
2023/11/26 08:19:57;;;;;;;3.03;1.20;;;;;;;20.22;55.92;101612.19;5077067;28;20445;-36
2023/11/26 08:22:24;;;;;;;1.63;1.10;;;;;;;20.19;56.09;101611.63;5075420;28;20032;-36
2023/11/26 08:24:52;;;;;;;1.50;1.00;;;;;;;20.17;55.97;101608.34;5083571;28;20200;-36
2023/11/26 08:27:19;;;;;;;1.83;1.20;;;;;;;20.16;55.86;101601.16;5084025;28;20362;-36
2023/11/26 08:29:45;;;;;;;1.88;1.08;;;;;;;20.13;55.91;101595.38;5085034;28;20036;-36
2023/11/26 08:32:10;;;;;;;2.92;1.40;;;;;;;20.10;55.96;101605.03;5088773;28;20042;-37
2023/11/26 08:34:39;;;;;;;1.88;1.00;;;;;;;20.07;56.00;101601.97;5078680;28;20052;-36
2023/11/26 08:37:06;;;;;;;2.25;1.30;;;;;;;20.04;56.24;101604.16;5088613;28;20023;-36
2023/11/26 08:39:36;;;;;;;2.55;1.50;;;;;;;19.99;56.08;101604.16;5078394;28;20703;-36
2023/11/26 08:42:04;;;;;;;4.05;1.15;;;;;;;19.97;56.10;101595.34;5115373;27;20027;-36
2023/11/26 08:44:33;;;;;;;1.55;1.10;;;;;;;19.95;56.35;101593.97;5096228;28;20507;-36
2023/11/26 08:46:59;;;;;;;2.72;1.27;;;;;;;19.93;56.29;101590.69;5089399;28;20019;-36
2023/11/26 08:49:25;;;;;;;2.72;1.30;;;;;;;19.91;56.26;101590.94;5087153;28;20020;-36
2023/11/26 08:51:51;;;;;;;2.42;1.17;;;;;;;19.89;56.34;101601.41;5082180;28;20024;-36
2023/11/26 08:54:16;;;;;;;2.00;1.10;;;;;;;19.88;56.38;101594.25;5089449;28;20093;-36
2023/11/26 08:56:42;;;;;;;1.85;1.10;;;;;;;19.85;56.53;101601.13;5079434;28;20080;-36
2023/11/26 08:59:09;;;;;;;2.70;1.30;;;;;;;19.82;56.35;101596.13;5088257;28;20059;-36
2023/11/26 09:01:37;;;;;;;3.22;1.33;;;;;;;19.80;56.59;101592.81;5088115;28;20036;-36
2023/11/26 09:04:03;;;;;;;2.92;1.45;;;;;;;19.79;56.76;101604.06;5075599;28;20032;-36
2023/11/26 09:06:28;;;;;;;4.25;1.38;;;;;;;19.76;56.68;101599.94;5089581;28;20357;-36
2023/11/26 09:08:54;;;;;;;2.92;1.33;;;;;;;19.75;56.75;101597.47;5084103;28;20329;-36
2023/11/26 09:11:20;;;;;;;2.65;1.20;;;;;;;19.72;56.46;101596.91;5084540;28;20081;-36
2023/11/26 09:13:46;;;;;;;3.15;1.42;;;;;;;19.71;56.71;101600.75;5089176;28;20483;-36
2023/11/26 09:16:11;;;;;;;1.67;1.20;;;;;;;19.68;56.94;101587.56;5080050;28;20495;-35
2023/11/26 09:18:37;;;;;;;2.28;1.20;;;;;;;19.65;56.70;101596.34;5082019;28;20025;-35
2023/11/26 09:21:03;;;;;;;3.08;1.30;;;;;;;19.63;56.98;101589.47;5081516;28;20512;-35
2023/11/26 09:23:29;;;;;;;3.17;1.50;;;;;;;19.60;56.88;101590.00;5078242;28;20106;-36
2023/11/26 09:25:55;;;;;;;1.60;1.27;;;;;;;19.57;57.04;101591.38;5075395;28;20115;-36
2023/11/26 09:28:20;;;;;;;3.30;1.30;;;;;;;19.55;57.15;101590.81;5064770;28;20499;-36
2023/11/26 09:30:45;;;;;;;2.70;1.30;;;;;;;19.52;57.07;101583.94;5082468;28;20499;-36
2023/11/26 09:33:11;;;;;;;2.30;1.30;;;;;;;19.50;57.18;101586.13;5084487;28;20089;-36
2023/11/26 09:35:36;;;;;;;3.83;1.55;;;;;;;19.48;57.19;101584.72;5083429;28;20031;-36
2023/11/26 09:38:02;;;;;;;3.45;1.45;;;;;;;19.46;56.95;101587.75;5073460;28;20035;-36
2023/11/26 09:40:28;;;;;;;2.50;1.33;;;;;;;19.45;57.24;101583.34;5083867;28;20440;-37
2023/11/26 09:42:56;;;;;;;2.58;1.30;;;;;;;19.44;57.26;101584.44;5082783;28;20020;-37
2023/11/26 09:45:21;;;;;;;3.75;1.75;;;;;;;19.43;57.01;101590.22;5083324;28;20039;-36
2023/11/26 09:47:47;;;;;;;2.35;1.33;;;;;;;19.43;57.18;101587.47;5090408;28;20028;-36
2023/11/26 09:50:13;;;;;;;5.07;1.50;;;;;;;19.41;57.19;101595.97;5086135;28;20047;-36
2023/11/26 09:52:40;;;;;;;3.15;1.50;;;;;;;19.39;57.06;101587.19;5089146;28;20030;-36
2023/11/26 09:55:07;;;;;;;3.20;1.30;;;;;;;19.40;57.14;101597.09;5077639;28;20059;-36
2023/11/26 09:57:33;;;;;;;6.20;1.50;;;;;;;19.38;57.03;101599.25;5085682;28;20048;-36
2023/11/26 10:00:01;;;;;;;3.13;1.42;;;;;;;19.37;57.32;101608.59;5082200;28;20828;-36
2023/11/26 10:02:26;;;;;;;4.82;1.73;;;;;;;19.35;57.38;101597.03;5079310;28;20351;-35
2023/11/26 10:04:53;;;;;;;3.60;1.83;;;;;;;19.35;57.07;101602.53;5080382;28;20036;-35
2023/11/26 10:07:35;;;;;;;2.90;1.38;;;;;;;19.34;57.24;101600.91;5084391;28;20020;-35
2023/11/26 10:10:09;;;;;;;3.28;1.40;;;;;;;19.32;57.25;101606.66;5081070;28;20473;-35
2023/11/26 10:12:59;;;;;;;3.65;1.60;;;;;;;19.31;57.27;101607.75;5082338;28;20852;-36
2023/11/26 10:15:26;;;;;;;3.22;1.52;;;;;;;19.30;57.36;101603.34;5080004;28;20316;-36
2023/11/26 10:18:06;;;;;;;3.20;1.67;;;;;;;19.29;57.32;101603.59;5081591;28;20277;-36
2023/11/26 10:20:39;;;;;;;3.40;1.42;;;;;;;19.27;57.10;101594.81;5075765;28;20089;-36
2023/11/26 10:23:07;;;;;;;5.03;1.88;;;;;;;19.27;57.18;101597.56;5081436;28;20035;-36
2023/11/26 10:25:33;;;;;;;4.43;1.98;;;;;;;19.25;57.24;101595.06;5079335;28;20028;-37
2023/11/26 10:28:02;;;;;;;4.88;1.70;;;;;;;19.25;57.44;101595.06;5091495;28;20054;-36
2023/11/26 10:30:30;;;;;;;2.95;1.50;;;;;;;19.23;57.62;101592.59;5081328;28;20020;-36
2023/11/26 10:33:04;;;;;;;3.17;1.60;;;;;;;19.23;57.47;101595.34;5106312;28;20032;-36
2023/11/26 10:35:53;;;;;;;4.60;1.88;;;;;;;19.25;57.63;101592.31;5083145;28;20023;-36
2023/11/26 10:38:20;;;;;;;2.67;1.50;;;;;;;19.28;57.60;101593.72;5082616;28;20143;-36
2023/11/26 10:40:46;;;;;;;4.65;1.98;;;;;;;19.30;57.32;101580.53;5082319;28;20062;-37
2023/11/26 10:43:12;;;;;;;4.00;2.00;;;;;;;19.31;57.49;101579.44;5094634;28;20841;-36
2023/11/26 10:45:39;;;;;;;3.70;2.00;;;;;;;19.35;57.21;101572.28;5092364;28;20027;-36
2023/11/26 10:48:14;;;;;;;5.78;2.00;;;;;;;19.37;57.38;101565.47;5096230;28;20019;-36
2023/11/26 10:51:08;;;;;;;2.92;1.98;;;;;;;19.40;57.30;101564.91;5092879;28;20054;-36
2023/11/26 10:53:43;;;;;;;2.05;1.58;;;;;;;19.42;57.34;101556.38;5066779;28;20397;-36
2023/11/26 10:56:12;;;;;;;2.50;1.70;;;;;;;19.43;57.21;101562.72;5084922;28;20016;-36
2023/11/26 10:58:39;;;;;;;3.03;1.80;;;;;;;19.42;57.17;101558.31;5085263;28;20515;-36
2023/11/26 11:01:05;;;;;;;4.10;1.92;;;;;;;19.42;57.17;101564.63;5083505;28;20586;-36
2023/11/26 11:03:31;;;;;;;4.15;1.98;;;;;;;19.38;57.35;101564.34;5084193;28;20098;-36
2023/11/26 11:05:58;;;;;;;2.60;1.40;;;;;;;19.40;57.38;101561.34;5085127;28;20544;-36
2023/11/26 11:08:24;;;;;;;4.78;1.92;;;;;;;19.41;57.42;101568.47;5090809;28;20043;-36
2023/11/26 11:11:06;;;;;;;3.00;1.67;;;;;;;19.39;57.14;101568.75;5085513;28;20040;-36
2023/11/26 11:13:33;;;;;;;2.67;1.58;;;;;;;19.40;57.40;101564.09;5082423;28;20056;-36
2023/11/26 11:15:58;;;;;;;6.80;1.88;;;;;;;19.37;57.21;101561.88;5082253;28;20559;-36
2023/11/26 11:18:27;;;;;;;3.63;1.80;;;;;;;19.36;57.38;101555.56;5085006;28;20104;-36
2023/11/26 11:21:05;;;;;;;3.00;1.52;;;;;;;19.33;57.35;101550.59;5082063;28;20027;-36
2023/11/26 11:23:47;;;;;;;2.35;1.33;;;;;;;19.32;57.39;101553.59;5085290;28;20034;-36